sensor_id;sensor_type;location;lat;lon;timestamp;P1;durP1;ratioP1;P2;durP2;ratioP2
47796;SDS011;33558;50.922;14.068;2022-08-19T00:00:04;16.38;;;11.38;;
47796;SDS011;33558;50.922;14.068;2022-08-19T00:02:33;15.35;;;11.57;;
47796;SDS011;33558;50.922;14.068;2022-08-19T00:04:59;12.55;;;11.25;;
47796;SDS011;33558;50.922;14.068;2022-08-19T00:07:26;12.57;;;11.35;;
47796;SDS011;33558;50.922;14.068;2022-08-19T00:09:53;11.93;;;10.73;;
47796;SDS011;33558;50.922;14.068;2022-08-19T00:12:19;12.63;;;10.63;;
47796;SDS011;33558;50.922;14.068;2022-08-19T00:14:46;11.65;;;10.45;;
47796;SDS011;33558;50.922;14.068;2022-08-19T00:17:14;16.73;;;9.60;;
47796;SDS011;33558;50.922;14.068;2022-08-19T00:19:41;12.75;;;11.15;;
47796;SDS011;33558;50.922;14.068;2022-08-19T00:22:07;11.70;;;10.32;;
47796;SDS011;33558;50.922;14.068;2022-08-19T00:24:34;14.30;;;12.10;;
47796;SDS011;33558;50.922;14.068;2022-08-19T00:27:03;12.65;;;11.32;;
47796;SDS011;33558;50.922;14.068;2022-08-19T00:29:30;12.60;;;11.30;;
47796;SDS011;33558;50.922;14.068;2022-08-19T00:31:57;13.15;;;11.85;;
47796;SDS011;33558;50.922;14.068;2022-08-19T00:34:26;14.05;;;11.68;;
47796;SDS011;33558;50.922;14.068;2022-08-19T00:36:53;12.88;;;11.63;;
47796;SDS011;33558;50.922;14.068;2022-08-19T00:39:20;13.57;;;11.65;;
47796;SDS011;33558;50.922;14.068;2022-08-19T00:41:48;13.40;;;11.98;;
47796;SDS011;33558;50.922;14.068;2022-08-19T00:44:16;14.70;;;12.45;;
47796;SDS011;33558;50.922;14.068;2022-08-19T00:46:46;14.50;;;12.82;;
47796;SDS011;33558;50.922;14.068;2022-08-19T00:49:14;14.07;;;12.13;;
47796;SDS011;33558;50.922;14.068;2022-08-19T00:51:44;14.40;;;12.90;;
47796;SDS011;33558;50.922;14.068;2022-08-19T00:54:12;14.43;;;12.98;;
47796;SDS011;33558;50.922;14.068;2022-08-19T00:56:39;14.52;;;12.93;;
47796;SDS011;33558;50.922;14.068;2022-08-19T00:59:07;14.70;;;13.20;;
47796;SDS011;33558;50.922;14.068;2022-08-19T01:01:35;16.15;;;14.55;;
47796;SDS011;33558;50.922;14.068;2022-08-19T01:04:02;15.88;;;14.10;;
47796;SDS011;33558;50.922;14.068;2022-08-19T01:06:29;19.23;;;15.18;;
47796;SDS011;33558;50.922;14.068;2022-08-19T01:08:59;16.25;;;14.63;;
47796;SDS011;33558;50.922;14.068;2022-08-19T01:11:26;18.50;;;16.70;;
47796;SDS011;33558;50.922;14.068;2022-08-19T01:13:53;17.75;;;15.68;;
47796;SDS011;33558;50.922;14.068;2022-08-19T01:16:21;18.88;;;15.80;;
47796;SDS011;33558;50.922;14.068;2022-08-19T01:18:49;18.88;;;15.68;;
47796;SDS011;33558;50.922;14.068;2022-08-19T01:21:16;19.27;;;16.58;;
47796;SDS011;33558;50.922;14.068;2022-08-19T01:23:48;18.65;;;16.70;;
47796;SDS011;33558;50.922;14.068;2022-08-19T01:26:15;19.45;;;16.80;;
47796;SDS011;33558;50.922;14.068;2022-08-19T01:28:47;18.23;;;16.40;;
47796;SDS011;33558;50.922;14.068;2022-08-19T01:31:16;17.08;;;15.38;;
47796;SDS011;33558;50.922;14.068;2022-08-19T01:33:43;18.83;;;17.02;;
47796;SDS011;33558;50.922;14.068;2022-08-19T01:36:13;18.98;;;16.98;;
47796;SDS011;33558;50.922;14.068;2022-08-19T01:38:42;18.00;;;16.20;;
47796;SDS011;33558;50.922;14.068;2022-08-19T01:41:11;19.25;;;17.20;;
47796;SDS011;33558;50.922;14.068;2022-08-19T01:43:38;18.48;;;16.45;;
47796;SDS011;33558;50.922;14.068;2022-08-19T01:46:05;18.60;;;16.73;;
47796;SDS011;33558;50.922;14.068;2022-08-19T01:48:35;19.13;;;17.13;;
47796;SDS011;33558;50.922;14.068;2022-08-19T01:51:03;19.60;;;17.50;;
47796;SDS011;33558;50.922;14.068;2022-08-19T01:53:29;18.90;;;16.40;;
47796;SDS011;33558;50.922;14.068;2022-08-19T01:55:56;19.88;;;17.92;;
47796;SDS011;33558;50.922;14.068;2022-08-19T01:58:26;20.08;;;17.88;;
47796;SDS011;33558;50.922;14.068;2022-08-19T02:00:56;19.65;;;17.85;;
47796;SDS011;33558;50.922;14.068;2022-08-19T02:03:23;19.80;;;17.70;;
47796;SDS011;33558;50.922;14.068;2022-08-19T02:05:53;19.63;;;17.73;;
47796;SDS011;33558;50.922;14.068;2022-08-19T02:08:20;20.27;;;17.83;;
47796;SDS011;33558;50.922;14.068;2022-08-19T02:10:47;18.25;;;16.55;;
47796;SDS011;33558;50.922;14.068;2022-08-19T02:13:14;19.42;;;17.50;;
47796;SDS011;33558;50.922;14.068;2022-08-19T02:15:43;23.15;;;18.13;;
47796;SDS011;33558;50.922;14.068;2022-08-19T02:18:09;19.75;;;17.75;;
47796;SDS011;33558;50.922;14.068;2022-08-19T02:20:37;19.90;;;17.85;;
47796;SDS011;33558;50.922;14.068;2022-08-19T02:23:04;20.30;;;17.35;;
47796;SDS011;33558;50.922;14.068;2022-08-19T02:25:31;20.55;;;18.45;;
47796;SDS011;33558;50.922;14.068;2022-08-19T02:27:58;21.73;;;17.90;;
47796;SDS011;33558;50.922;14.068;2022-08-19T02:30:24;21.88;;;18.90;;
47796;SDS011;33558;50.922;14.068;2022-08-19T02:32:53;19.95;;;17.88;;
47796;SDS011;33558;50.922;14.068;2022-08-19T02:35:20;21.27;;;19.15;;
47796;SDS011;33558;50.922;14.068;2022-08-19T02:37:47;19.02;;;17.23;;
47796;SDS011;33558;50.922;14.068;2022-08-19T02:40:32;20.47;;;18.30;;
47796;SDS011;33558;50.922;14.068;2022-08-19T02:42:59;21.63;;;19.55;;
47796;SDS011;33558;50.922;14.068;2022-08-19T02:45:26;21.35;;;18.98;;
47796;SDS011;33558;50.922;14.068;2022-08-19T02:47:54;22.88;;;20.42;;
47796;SDS011;33558;50.922;14.068;2022-08-19T02:50:21;22.00;;;19.40;;
47796;SDS011;33558;50.922;14.068;2022-08-19T02:52:48;21.52;;;19.27;;
47796;SDS011;33558;50.922;14.068;2022-08-19T02:55:15;21.35;;;19.05;;
47796;SDS011;33558;50.922;14.068;2022-08-19T02:57:41;21.17;;;19.10;;
47796;SDS011;33558;50.922;14.068;2022-08-19T03:00:08;22.90;;;20.50;;
47796;SDS011;33558;50.922;14.068;2022-08-19T03:02:37;23.38;;;20.92;;
47796;SDS011;33558;50.922;14.068;2022-08-19T03:05:06;21.98;;;19.92;;
47796;SDS011;33558;50.922;14.068;2022-08-19T03:07:35;24.60;;;22.02;;
47796;SDS011;33558;50.922;14.068;2022-08-19T03:10:01;24.17;;;21.63;;
47796;SDS011;33558;50.922;14.068;2022-08-19T03:12:28;23.23;;;20.90;;
47796;SDS011;33558;50.922;14.068;2022-08-19T03:14:55;25.10;;;21.40;;
47796;SDS011;33558;50.922;14.068;2022-08-19T03:17:21;23.50;;;20.63;;
47796;SDS011;33558;50.922;14.068;2022-08-19T03:19:48;23.08;;;20.63;;
47796;SDS011;33558;50.922;14.068;2022-08-19T03:22:16;22.50;;;20.30;;
47796;SDS011;33558;50.922;14.068;2022-08-19T03:24:42;21.20;;;19.00;;
47796;SDS011;33558;50.922;14.068;2022-08-19T03:27:09;23.20;;;20.77;;
47796;SDS011;33558;50.922;14.068;2022-08-19T03:29:36;21.00;;;18.98;;
47796;SDS011;33558;50.922;14.068;2022-08-19T03:32:05;23.20;;;20.73;;
47796;SDS011;33558;50.922;14.068;2022-08-19T03:34:33;22.42;;;19.25;;
47796;SDS011;33558;50.922;14.068;2022-08-19T03:37:03;22.77;;;20.52;;
47796;SDS011;33558;50.922;14.068;2022-08-19T03:39:32;21.20;;;18.83;;
47796;SDS011;33558;50.922;14.068;2022-08-19T03:41:58;21.90;;;19.60;;
47796;SDS011;33558;50.922;14.068;2022-08-19T03:44:27;21.63;;;19.42;;
47796;SDS011;33558;50.922;14.068;2022-08-19T03:46:55;23.83;;;21.17;;
47796;SDS011;33558;50.922;14.068;2022-08-19T03:49:23;21.88;;;19.63;;
47796;SDS011;33558;50.922;14.068;2022-08-19T03:51:52;22.98;;;20.38;;
47796;SDS011;33558;50.922;14.068;2022-08-19T03:54:20;22.83;;;20.45;;
47796;SDS011;33558;50.922;14.068;2022-08-19T03:56:50;23.05;;;20.67;;
47796;SDS011;33558;50.922;14.068;2022-08-19T03:59:19;23.48;;;20.60;;
47796;SDS011;33558;50.922;14.068;2022-08-19T04:01:47;23.63;;;21.13;;
47796;SDS011;33558;50.922;14.068;2022-08-19T04:04:14;23.63;;;20.63;;
47796;SDS011;33558;50.922;14.068;2022-08-19T04:06:41;20.95;;;18.83;;
47796;SDS011;33558;50.922;14.068;2022-08-19T04:09:10;24.67;;;22.02;;
47796;SDS011;33558;50.922;14.068;2022-08-19T04:11:38;24.17;;;21.67;;
47796;SDS011;33558;50.922;14.068;2022-08-19T04:14:08;23.75;;;21.25;;
47796;SDS011;33558;50.922;14.068;2022-08-19T04:16:34;24.30;;;21.70;;
47796;SDS011;33558;50.922;14.068;2022-08-19T04:19:02;24.50;;;21.90;;
47796;SDS011;33558;50.922;14.068;2022-08-19T04:21:29;25.50;;;22.80;;
47796;SDS011;33558;50.922;14.068;2022-08-19T04:23:56;27.52;;;24.63;;
47796;SDS011;33558;50.922;14.068;2022-08-19T04:26:24;26.20;;;22.02;;
47796;SDS011;33558;50.922;14.068;2022-08-19T04:28:51;21.95;;;19.92;;
47796;SDS011;33558;50.922;14.068;2022-08-19T04:31:21;25.90;;;23.30;;
47796;SDS011;33558;50.922;14.068;2022-08-19T04:33:51;25.65;;;22.90;;
47796;SDS011;33558;50.922;14.068;2022-08-19T04:36:18;23.65;;;21.33;;
47796;SDS011;33558;50.922;14.068;2022-08-19T04:38:47;24.38;;;21.88;;
47796;SDS011;33558;50.922;14.068;2022-08-19T04:41:14;25.08;;;22.48;;
47796;SDS011;33558;50.922;14.068;2022-08-19T04:43:58;25.90;;;22.83;;
47796;SDS011;33558;50.922;14.068;2022-08-19T04:46:26;27.15;;;23.88;;
47796;SDS011;33558;50.922;14.068;2022-08-19T04:48:54;28.63;;;25.70;;
47796;SDS011;33558;50.922;14.068;2022-08-19T04:51:21;26.08;;;23.42;;
47796;SDS011;33558;50.922;14.068;2022-08-19T04:53:48;26.85;;;24.08;;
47796;SDS011;33558;50.922;14.068;2022-08-19T04:56:16;27.50;;;24.70;;
47796;SDS011;33558;50.922;14.068;2022-08-19T04:58:44;28.08;;;25.10;;
47796;SDS011;33558;50.922;14.068;2022-08-19T05:01:11;28.20;;;25.08;;
47796;SDS011;33558;50.922;14.068;2022-08-19T05:03:40;29.85;;;26.70;;
47796;SDS011;33558;50.922;14.068;2022-08-19T05:06:07;29.42;;;26.33;;
47796;SDS011;33558;50.922;14.068;2022-08-19T05:08:37;28.83;;;25.83;;
47796;SDS011;33558;50.922;14.068;2022-08-19T05:11:07;29.80;;;26.67;;
47796;SDS011;33558;50.922;14.068;2022-08-19T05:13:36;29.23;;;26.05;;
47796;SDS011;33558;50.922;14.068;2022-08-19T05:16:03;29.50;;;26.17;;
47796;SDS011;33558;50.922;14.068;2022-08-19T05:18:30;30.25;;;27.33;;
47796;SDS011;33558;50.922;14.068;2022-08-19T05:21:16;30.10;;;27.00;;
47796;SDS011;33558;50.922;14.068;2022-08-19T05:24:02;30.73;;;26.73;;
47796;SDS011;33558;50.922;14.068;2022-08-19T05:26:33;33.55;;;28.33;;
47796;SDS011;33558;50.922;14.068;2022-08-19T05:29:00;30.42;;;27.33;;
47796;SDS011;33558;50.922;14.068;2022-08-19T05:31:27;32.58;;;27.55;;
47796;SDS011;33558;50.922;14.068;2022-08-19T05:33:53;32.47;;;29.00;;
47796;SDS011;33558;50.922;14.068;2022-08-19T05:36:22;32.75;;;29.13;;
47796;SDS011;33558;50.922;14.068;2022-08-19T05:38:48;36.90;;;30.25;;
47796;SDS011;33558;50.922;14.068;2022-08-19T05:41:16;33.85;;;29.52;;
47796;SDS011;33558;50.922;14.068;2022-08-19T05:43:43;31.50;;;28.20;;
47796;SDS011;33558;50.922;14.068;2022-08-19T05:46:15;32.35;;;28.98;;
47796;SDS011;33558;50.922;14.068;2022-08-19T05:48:43;29.73;;;25.95;;
47796;SDS011;33558;50.922;14.068;2022-08-19T05:51:10;32.92;;;29.38;;
47796;SDS011;33558;50.922;14.068;2022-08-19T05:53:38;32.17;;;28.70;;
47796;SDS011;33558;50.922;14.068;2022-08-19T05:56:05;30.60;;;25.58;;
47796;SDS011;33558;50.922;14.068;2022-08-19T05:58:32;28.80;;;25.92;;
47796;SDS011;33558;50.922;14.068;2022-08-19T06:00:58;28.08;;;25.17;;
47796;SDS011;33558;50.922;14.068;2022-08-19T06:03:29;27.90;;;25.02;;
47796;SDS011;33558;50.922;14.068;2022-08-19T06:05:56;28.95;;;26.02;;
47796;SDS011;33558;50.922;14.068;2022-08-19T06:08:24;28.35;;;25.30;;
47796;SDS011;33558;50.922;14.068;2022-08-19T06:10:53;27.83;;;24.92;;
47796;SDS011;33558;50.922;14.068;2022-08-19T06:13:20;29.70;;;25.60;;
47796;SDS011;33558;50.922;14.068;2022-08-19T06:15:47;28.50;;;25.60;;
47796;SDS011;33558;50.922;14.068;2022-08-19T06:18:14;29.67;;;26.65;;
47796;SDS011;33558;50.922;14.068;2022-08-19T06:20:42;27.13;;;24.35;;
47796;SDS011;33558;50.922;14.068;2022-08-19T06:23:09;29.58;;;26.55;;
47796;SDS011;33558;50.922;14.068;2022-08-19T06:25:36;28.98;;;25.20;;
47796;SDS011;33558;50.922;14.068;2022-08-19T06:28:06;27.65;;;24.30;;
47796;SDS011;33558;50.922;14.068;2022-08-19T06:30:33;26.63;;;23.80;;
47796;SDS011;33558;50.922;14.068;2022-08-19T06:32:59;26.35;;;23.65;;
47796;SDS011;33558;50.922;14.068;2022-08-19T06:35:26;23.75;;;21.35;;
47796;SDS011;33558;50.922;14.068;2022-08-19T06:37:54;22.95;;;20.35;;
47796;SDS011;33558;50.922;14.068;2022-08-19T06:40:21;25.27;;;22.67;;
47796;SDS011;33558;50.922;14.068;2022-08-19T06:42:48;22.55;;;20.25;;
47796;SDS011;33558;50.922;14.068;2022-08-19T06:45:16;20.85;;;18.55;;
47796;SDS011;33558;50.922;14.068;2022-08-19T06:47:43;22.08;;;18.80;;
47796;SDS011;33558;50.922;14.068;2022-08-19T06:50:12;20.63;;;17.55;;
47796;SDS011;33558;50.922;14.068;2022-08-19T06:52:39;20.42;;;18.42;;
47796;SDS011;33558;50.922;14.068;2022-08-19T06:55:06;21.05;;;19.02;;
47796;SDS011;33558;50.922;14.068;2022-08-19T06:57:33;21.38;;;19.08;;
47796;SDS011;33558;50.922;14.068;2022-08-19T06:59:59;22.42;;;20.17;;
47796;SDS011;33558;50.922;14.068;2022-08-19T07:02:28;21.20;;;18.88;;
47796;SDS011;33558;50.922;14.068;2022-08-19T07:04:54;22.95;;;20.48;;
47796;SDS011;33558;50.922;14.068;2022-08-19T07:07:23;23.10;;;20.00;;
47796;SDS011;33558;50.922;14.068;2022-08-19T07:09:50;22.48;;;20.00;;
47796;SDS011;33558;50.922;14.068;2022-08-19T07:12:18;22.40;;;20.08;;
47796;SDS011;33558;50.922;14.068;2022-08-19T07:14:45;23.27;;;20.77;;
47796;SDS011;33558;50.922;14.068;2022-08-19T07:17:12;24.10;;;21.50;;
47796;SDS011;33558;50.922;14.068;2022-08-19T07:19:40;24.10;;;21.65;;
47796;SDS011;33558;50.922;14.068;2022-08-19T07:22:07;23.92;;;21.45;;
47796;SDS011;33558;50.922;14.068;2022-08-19T07:24:35;28.65;;;22.50;;
47796;SDS011;33558;50.922;14.068;2022-08-19T07:27:03;26.75;;;23.92;;
47796;SDS011;33558;50.922;14.068;2022-08-19T07:29:32;24.98;;;22.45;;
47796;SDS011;33558;50.922;14.068;2022-08-19T07:32:00;21.98;;;19.77;;
47796;SDS011;33558;50.922;14.068;2022-08-19T07:34:28;23.42;;;19.70;;
47796;SDS011;33558;50.922;14.068;2022-08-19T07:36:56;21.33;;;19.08;;
47796;SDS011;33558;50.922;14.068;2022-08-19T07:39:25;19.17;;;17.33;;
47796;SDS011;33558;50.922;14.068;2022-08-19T07:41:54;20.05;;;18.05;;
47796;SDS011;33558;50.922;14.068;2022-08-19T07:44:22;19.42;;;17.60;;
47796;SDS011;33558;50.922;14.068;2022-08-19T07:46:50;19.48;;;17.58;;
47796;SDS011;33558;50.922;14.068;2022-08-19T07:49:18;19.30;;;16.55;;
47796;SDS011;33558;50.922;14.068;2022-08-19T07:51:45;19.35;;;17.45;;
47796;SDS011;33558;50.922;14.068;2022-08-19T07:54:14;19.73;;;17.10;;
47796;SDS011;33558;50.922;14.068;2022-08-19T07:56:41;18.70;;;16.88;;
47796;SDS011;33558;50.922;14.068;2022-08-19T07:59:08;18.92;;;17.08;;
47796;SDS011;33558;50.922;14.068;2022-08-19T08:01:35;18.73;;;16.52;;
47796;SDS011;33558;50.922;14.068;2022-08-19T08:04:02;18.27;;;16.48;;
47796;SDS011;33558;50.922;14.068;2022-08-19T08:06:47;18.75;;;16.05;;
47796;SDS011;33558;50.922;14.068;2022-08-19T08:09:33;16.77;;;15.00;;
47796;SDS011;33558;50.922;14.068;2022-08-19T08:12:03;17.58;;;15.77;;
47796;SDS011;33558;50.922;14.068;2022-08-19T08:14:33;16.38;;;14.77;;
47796;SDS011;33558;50.922;14.068;2022-08-19T08:17:02;17.70;;;15.88;;
47796;SDS011;33558;50.922;14.068;2022-08-19T08:19:29;16.90;;;15.27;;
47796;SDS011;33558;50.922;14.068;2022-08-19T08:21:57;15.32;;;13.80;;
47796;SDS011;33558;50.922;14.068;2022-08-19T08:24:24;15.18;;;13.68;;
47796;SDS011;33558;50.922;14.068;2022-08-19T08:26:52;16.30;;;14.77;;
47796;SDS011;33558;50.922;14.068;2022-08-19T08:29:19;14.93;;;13.63;;
47796;SDS011;33558;50.922;14.068;2022-08-19T08:31:46;14.02;;;12.73;;
47796;SDS011;33558;50.922;14.068;2022-08-19T08:34:13;13.90;;;12.50;;
47796;SDS011;33558;50.922;14.068;2022-08-19T08:36:41;17.55;;;15.32;;
47796;SDS011;33558;50.922;14.068;2022-08-19T08:39:10;16.63;;;14.90;;
47796;SDS011;33558;50.922;14.068;2022-08-19T08:41:40;17.13;;;15.32;;
47796;SDS011;33558;50.922;14.068;2022-08-19T08:44:15;17.52;;;15.63;;
47796;SDS011;33558;50.922;14.068;2022-08-19T08:46:45;18.45;;;16.55;;
47796;SDS011;33558;50.922;14.068;2022-08-19T08:49:16;18.63;;;16.65;;
47796;SDS011;33558;50.922;14.068;2022-08-19T08:51:51;20.27;;;17.77;;
47796;SDS011;33558;50.922;14.068;2022-08-19T08:54:20;18.40;;;16.48;;
47796;SDS011;33558;50.922;14.068;2022-08-19T08:56:53;16.55;;;14.98;;
47796;SDS011;33558;50.922;14.068;2022-08-19T08:59:23;15.25;;;13.75;;
47796;SDS011;33558;50.922;14.068;2022-08-19T09:01:52;16.10;;;14.40;;
47796;SDS011;33558;50.922;14.068;2022-08-19T09:04:19;15.52;;;13.20;;
47796;SDS011;33558;50.922;14.068;2022-08-19T09:06:49;17.23;;;15.52;;
47796;SDS011;33558;50.922;14.068;2022-08-19T09:09:19;16.13;;;14.35;;
47796;SDS011;33558;50.922;14.068;2022-08-19T09:11:55;17.58;;;15.93;;
47796;SDS011;33558;50.922;14.068;2022-08-19T09:14:31;17.67;;;15.93;;
47796;SDS011;33558;50.922;14.068;2022-08-19T09:17:00;16.20;;;14.55;;
47796;SDS011;33558;50.922;14.068;2022-08-19T09:19:28;18.27;;;16.30;;
47796;SDS011;33558;50.922;14.068;2022-08-19T09:21:56;18.67;;;16.77;;
47796;SDS011;33558;50.922;14.068;2022-08-19T09:24:25;16.95;;;15.35;;
47796;SDS011;33558;50.922;14.068;2022-08-19T09:26:53;17.88;;;15.98;;
47796;SDS011;33558;50.922;14.068;2022-08-19T09:29:19;19.17;;;17.20;;
47796;SDS011;33558;50.922;14.068;2022-08-19T09:31:48;17.73;;;16.00;;
47796;SDS011;33558;50.922;14.068;2022-08-19T09:34:15;20.30;;;18.25;;
47796;SDS011;33558;50.922;14.068;2022-08-19T09:36:42;19.70;;;17.70;;
47796;SDS011;33558;50.922;14.068;2022-08-19T09:39:09;21.50;;;18.38;;
47796;SDS011;33558;50.922;14.068;2022-08-19T09:41:36;19.92;;;17.73;;
47796;SDS011;33558;50.922;14.068;2022-08-19T09:44:03;17.83;;;15.93;;
47796;SDS011;33558;50.922;14.068;2022-08-19T09:46:29;20.20;;;16.70;;
47796;SDS011;33558;50.922;14.068;2022-08-19T09:48:58;19.30;;;17.38;;
47796;SDS011;33558;50.922;14.068;2022-08-19T09:51:26;18.90;;;16.98;;
47796;SDS011;33558;50.922;14.068;2022-08-19T09:53:54;17.60;;;14.77;;
47796;SDS011;33558;50.922;14.068;2022-08-19T09:56:25;18.35;;;16.27;;
47796;SDS011;33558;50.922;14.068;2022-08-19T09:58:52;18.90;;;16.90;;
47796;SDS011;33558;50.922;14.068;2022-08-19T10:01:19;17.02;;;15.32;;
47796;SDS011;33558;50.922;14.068;2022-08-19T10:03:48;17.88;;;14.82;;
47796;SDS011;33558;50.922;14.068;2022-08-19T10:06:17;14.43;;;12.85;;
47796;SDS011;33558;50.922;14.068;2022-08-19T10:08:44;16.58;;;12.98;;
47796;SDS011;33558;50.922;14.068;2022-08-19T10:11:11;13.75;;;12.40;;
47796;SDS011;33558;50.922;14.068;2022-08-19T10:13:41;16.30;;;11.77;;
47796;SDS011;33558;50.922;14.068;2022-08-19T10:16:09;12.43;;;11.20;;
47796;SDS011;33558;50.922;14.068;2022-08-19T10:18:37;12.13;;;10.93;;
47796;SDS011;33558;50.922;14.068;2022-08-19T10:21:08;12.40;;;11.20;;
47796;SDS011;33558;50.922;14.068;2022-08-19T10:23:38;12.70;;;11.38;;
47796;SDS011;33558;50.922;14.068;2022-08-19T10:26:09;12.35;;;11.15;;
47796;SDS011;33558;50.922;14.068;2022-08-19T10:28:37;12.52;;;11.35;;
47796;SDS011;33558;50.922;14.068;2022-08-19T10:31:04;12.07;;;10.88;;
47796;SDS011;33558;50.922;14.068;2022-08-19T10:33:32;12.32;;;11.02;;
47796;SDS011;33558;50.922;14.068;2022-08-19T10:36:00;11.57;;;10.38;;
47796;SDS011;33558;50.922;14.068;2022-08-19T10:38:27;12.38;;;11.07;;
47796;SDS011;33558;50.922;14.068;2022-08-19T10:40:56;11.30;;;10.25;;
47796;SDS011;33558;50.922;14.068;2022-08-19T10:43:24;10.88;;;9.77;;
47796;SDS011;33558;50.922;14.068;2022-08-19T10:45:53;11.00;;;9.82;;
47796;SDS011;33558;50.922;14.068;2022-08-19T10:48:23;12.07;;;10.93;;
47796;SDS011;33558;50.922;14.068;2022-08-19T10:50:50;10.27;;;9.38;;
47796;SDS011;33558;50.922;14.068;2022-08-19T10:53:34;11.75;;;10.63;;
47796;SDS011;33558;50.922;14.068;2022-08-19T10:56:02;11.57;;;10.48;;
47796;SDS011;33558;50.922;14.068;2022-08-19T11:01:13;10.75;;;9.45;;
47796;SDS011;33558;50.922;14.068;2022-08-19T11:03:40;9.43;;;8.63;;
47796;SDS011;33558;50.922;14.068;2022-08-19T11:06:07;10.35;;;9.35;;
47796;SDS011;33558;50.922;14.068;2022-08-19T11:08:35;12.52;;;11.32;;
47796;SDS011;33558;50.922;14.068;2022-08-19T11:11:04;13.77;;;12.38;;
47796;SDS011;33558;50.922;14.068;2022-08-19T11:13:33;14.18;;;12.77;;
47796;SDS011;33558;50.922;14.068;2022-08-19T11:16:03;12.23;;;11.00;;
47796;SDS011;33558;50.922;14.068;2022-08-19T11:18:32;11.88;;;10.63;;
47796;SDS011;33558;50.922;14.068;2022-08-19T11:21:08;12.38;;;11.18;;
47796;SDS011;33558;50.922;14.068;2022-08-19T11:23:36;11.68;;;10.40;;
47796;SDS011;33558;50.922;14.068;2022-08-19T11:26:05;12.18;;;11.00;;
47796;SDS011;33558;50.922;14.068;2022-08-19T11:28:32;11.90;;;10.80;;
47796;SDS011;33558;50.922;14.068;2022-08-19T11:30:58;12.77;;;11.65;;
47796;SDS011;33558;50.922;14.068;2022-08-19T11:33:25;11.90;;;10.90;;
47796;SDS011;33558;50.922;14.068;2022-08-19T11:35:52;10.93;;;9.82;;
47796;SDS011;33558;50.922;14.068;2022-08-19T11:38:19;10.90;;;9.80;;
47796;SDS011;33558;50.922;14.068;2022-08-19T11:40:53;11.15;;;10.05;;
47796;SDS011;33558;50.922;14.068;2022-08-19T11:43:22;11.20;;;10.20;;
47796;SDS011;33558;50.922;14.068;2022-08-19T11:45:49;13.15;;;11.55;;
47796;SDS011;33558;50.922;14.068;2022-08-19T11:48:16;12.65;;;11.55;;
47796;SDS011;33558;50.922;14.068;2022-08-19T11:50:47;13.38;;;11.98;;
47796;SDS011;33558;50.922;14.068;2022-08-19T11:53:13;13.25;;;11.95;;
47796;SDS011;33558;50.922;14.068;2022-08-19T11:55:43;14.70;;;13.20;;
47796;SDS011;33558;50.922;14.068;2022-08-19T11:58:09;13.98;;;12.68;;
47796;SDS011;33558;50.922;14.068;2022-08-19T12:00:38;16.02;;;13.15;;
47796;SDS011;33558;50.922;14.068;2022-08-19T12:03:04;14.45;;;13.05;;
47796;SDS011;33558;50.922;14.068;2022-08-19T12:05:31;13.07;;;11.88;;
47796;SDS011;33558;50.922;14.068;2022-08-19T12:07:58;12.88;;;11.68;;
47796;SDS011;33558;50.922;14.068;2022-08-19T12:10:24;15.07;;;13.57;;
47796;SDS011;33558;50.922;14.068;2022-08-19T12:12:51;13.80;;;12.43;;
47796;SDS011;33558;50.922;14.068;2022-08-19T12:15:18;13.82;;;12.07;;
47796;SDS011;33558;50.922;14.068;2022-08-19T12:17:46;12.98;;;11.68;;
47796;SDS011;33558;50.922;14.068;2022-08-19T12:20:12;11.18;;;10.02;;
47796;SDS011;33558;50.922;14.068;2022-08-19T12:22:40;12.07;;;10.52;;
47796;SDS011;33558;50.922;14.068;2022-08-19T12:25:08;9.55;;;8.65;;
47796;SDS011;33558;50.922;14.068;2022-08-19T12:27:36;10.02;;;8.90;;
47796;SDS011;33558;50.922;14.068;2022-08-19T12:30:03;9.27;;;8.38;;
47796;SDS011;33558;50.922;14.068;2022-08-19T12:32:30;9.73;;;8.77;;
47796;SDS011;33558;50.922;14.068;2022-08-19T12:34:58;9.27;;;8.45;;
47796;SDS011;33558;50.922;14.068;2022-08-19T12:37:26;8.32;;;7.53;;
47796;SDS011;33558;50.922;14.068;2022-08-19T12:39:52;8.73;;;7.93;;
47796;SDS011;33558;50.922;14.068;2022-08-19T12:42:19;8.95;;;7.93;;
47796;SDS011;33558;50.922;14.068;2022-08-19T12:44:47;9.60;;;8.70;;
47796;SDS011;33558;50.922;14.068;2022-08-19T12:47:14;9.25;;;8.45;;
47796;SDS011;33558;50.922;14.068;2022-08-19T12:49:41;8.93;;;8.10;;
47796;SDS011;33558;50.922;14.068;2022-08-19T12:52:10;9.90;;;8.43;;
47796;SDS011;33558;50.922;14.068;2022-08-19T12:54:40;9.20;;;8.30;;
47796;SDS011;33558;50.922;14.068;2022-08-19T12:57:07;9.35;;;7.68;;
47796;SDS011;33558;50.922;14.068;2022-08-19T12:59:34;9.50;;;8.52;;
47796;SDS011;33558;50.922;14.068;2022-08-19T13:02:01;13.38;;;9.38;;
47796;SDS011;33558;50.922;14.068;2022-08-19T13:04:30;10.90;;;9.80;;
47796;SDS011;33558;50.922;14.068;2022-08-19T13:06:56;10.23;;;9.32;;
47796;SDS011;33558;50.922;14.068;2022-08-19T13:09:25;9.80;;;8.80;;
47796;SDS011;33558;50.922;14.068;2022-08-19T13:11:51;9.63;;;8.73;;
47796;SDS011;33558;50.922;14.068;2022-08-19T13:14:18;8.50;;;7.68;;
47796;SDS011;33558;50.922;14.068;2022-08-19T13:16:44;8.80;;;8.00;;
47796;SDS011;33558;50.922;14.068;2022-08-19T13:19:11;8.90;;;7.97;;
47796;SDS011;33558;50.922;14.068;2022-08-19T13:21:38;9.40;;;8.15;;
47796;SDS011;33558;50.922;14.068;2022-08-19T13:24:05;9.02;;;8.13;;
47796;SDS011;33558;50.922;14.068;2022-08-19T13:26:33;10.63;;;9.15;;
47796;SDS011;33558;50.922;14.068;2022-08-19T13:28:59;11.55;;;10.35;;
47796;SDS011;33558;50.922;14.068;2022-08-19T13:31:44;12.85;;;10.90;;
47796;SDS011;33558;50.922;14.068;2022-08-19T13:34:29;12.73;;;11.00;;
47796;SDS011;33558;50.922;14.068;2022-08-19T13:36:58;12.95;;;11.65;;
47796;SDS011;33558;50.922;14.068;2022-08-19T13:39:28;13.20;;;11.90;;
47796;SDS011;33558;50.922;14.068;2022-08-19T13:41:56;14.07;;;12.77;;
47796;SDS011;33558;50.922;14.068;2022-08-19T13:44:24;14.45;;;13.15;;
47796;SDS011;33558;50.922;14.068;2022-08-19T13:46:51;15.27;;;13.68;;
47796;SDS011;33558;50.922;14.068;2022-08-19T13:49:18;17.17;;;15.40;;
47796;SDS011;33558;50.922;14.068;2022-08-19T13:51:45;18.00;;;15.48;;
47796;SDS011;33558;50.922;14.068;2022-08-19T13:54:12;17.33;;;15.52;;
47796;SDS011;33558;50.922;14.068;2022-08-19T13:56:42;17.83;;;15.93;;
47796;SDS011;33558;50.922;14.068;2022-08-19T13:59:11;18.02;;;16.27;;
47796;SDS011;33558;50.922;14.068;2022-08-19T14:01:38;19.42;;;17.13;;
47796;SDS011;33558;50.922;14.068;2022-08-19T14:04:05;20.13;;;18.10;;
47796;SDS011;33558;50.922;14.068;2022-08-19T14:06:32;19.50;;;17.50;;
47796;SDS011;33558;50.922;14.068;2022-08-19T14:08:59;18.15;;;16.30;;
47796;SDS011;33558;50.922;14.068;2022-08-19T14:11:27;20.38;;;18.33;;
47796;SDS011;33558;50.922;14.068;2022-08-19T14:13:53;18.90;;;16.90;;
47796;SDS011;33558;50.922;14.068;2022-08-19T14:16:21;18.15;;;16.25;;
47796;SDS011;33558;50.922;14.068;2022-08-19T14:18:48;17.90;;;16.10;;